createdAt,value
2023-03-02T00:01:57.509Z,98676.97
2023-03-02T00:05:04.312Z,98685.69
2023-03-02T00:07:34.753Z,98696.00
2023-03-02T00:10:01.878Z,98693.16
2023-03-02T00:12:31.384Z,98691.03
2023-03-02T00:14:58.457Z,98696.56
2023-03-02T00:17:28.085Z,98697.03
2023-03-02T00:20:10.358Z,98688.09
2023-03-02T00:22:43.335Z,98696.41
2023-03-02T00:25:12.611Z,98691.22
2023-03-02T00:27:39.664Z,98692.50
2023-03-02T00:30:08.109Z,98685.59
2023-03-02T00:32:35.167Z,98675.75
2023-03-02T00:35:03.230Z,98671.50
2023-03-02T00:37:30.177Z,98674.31
2023-03-02T00:39:56.923Z,98672.47
2023-03-02T00:42:23.992Z,98665.16
2023-03-02T00:44:52.751Z,98655.78
2023-03-02T00:47:19.930Z,98652.66
2023-03-02T00:49:49.991Z,98650.69
2023-03-02T00:52:17.751Z,98648.59
2023-03-02T00:54:44.802Z,98651.09
2023-03-02T00:57:11.740Z,98641.13
2023-03-02T00:59:39.983Z,98652.81
2023-03-02T01:02:24.047Z,98655.50
2023-03-02T01:04:53.398Z,98650.97
2023-03-02T01:07:22.333Z,98644.22
2023-03-02T01:09:49.428Z,98628.69
2023-03-02T01:12:17.276Z,98637.94
2023-03-02T01:14:47.251Z,98638.78
2023-03-02T01:17:15.057Z,98628.72
2023-03-02T01:19:42.182Z,98629.00
2023-03-02T01:22:09.490Z,98630.91
2023-03-02T01:24:36.566Z,98627.50
2023-03-02T01:27:03.407Z,98631.53
2023-03-02T01:29:30.192Z,98623.06
2023-03-02T01:31:57.388Z,98625.66
2023-03-02T01:34:24.309Z,98618.63
2023-03-02T01:36:51.144Z,98613.63
2023-03-02T01:39:18.037Z,98617.81
2023-03-02T01:41:46.625Z,98607.50
2023-03-02T01:44:40.309Z,98608.69
2023-03-02T01:47:27.125Z,98604.50
2023-03-02T01:50:11.586Z,98599.00
2023-03-02T01:52:40.560Z,98601.94
2023-03-02T01:55:12.627Z,98597.50
2023-03-02T01:57:46.880Z,98602.69
2023-03-02T02:00:22.128Z,98594.28
2023-03-02T02:03:09.009Z,98593.13
2023-03-02T02:05:43.009Z,98593.38
2023-03-02T02:08:10.521Z,98594.81
2023-03-02T02:10:40.872Z,98601.75
2023-03-02T02:13:11.458Z,98591.94
2023-03-02T02:15:40.347Z,98589.59
2023-03-02T02:18:07.878Z,98585.00
2023-03-02T02:20:47.478Z,98581.72
2023-03-02T02:23:19.612Z,98585.84
2023-03-02T02:25:55.698Z,98583.56
2023-03-02T02:28:31.839Z,98574.78
2023-03-02T02:31:15.762Z,98574.56
2023-03-02T02:33:47.075Z,98562.88
2023-03-02T02:36:22.919Z,98565.75
2023-03-02T02:38:53.833Z,98576.31
2023-03-02T02:41:27.313Z,98568.91
2023-03-02T02:43:55.659Z,98562.88
2023-03-02T02:46:23.424Z,98567.19
2023-03-02T02:48:50.447Z,98552.09
2023-03-02T02:51:26.261Z,98552.63
2023-03-02T02:54:06.495Z,98545.66
2023-03-02T02:56:39.281Z,98544.63
2023-03-02T02:59:20.504Z,98540.25
2023-03-02T03:01:48.617Z,98532.41
2023-03-02T03:04:21.076Z,98542.56
2023-03-02T03:06:57.373Z,98542.19
2023-03-02T03:09:27.887Z,98538.31
2023-03-02T03:12:36.181Z,98548.06
2023-03-02T03:15:04.090Z,98554.34
2023-03-02T03:17:31.001Z,98544.88
2023-03-02T03:20:09.391Z,98552.69
2023-03-02T03:22:42.338Z,98554.59
2023-03-02T03:25:16.745Z,98550.28
2023-03-02T03:27:51.577Z,98553.44
2023-03-02T03:30:21.208Z,98550.94
2023-03-02T03:32:48.601Z,98552.56
2023-03-02T03:35:17.253Z,98549.34
2023-03-02T03:37:45.921Z,98556.28
2023-03-02T03:40:15.763Z,98562.78
2023-03-02T03:42:44.281Z,98547.66
2023-03-02T03:45:13.422Z,98560.59
2023-03-02T03:47:42.724Z,98561.34
2023-03-02T03:50:10.988Z,98557.34
2023-03-02T03:52:38.751Z,98556.72
2023-03-02T03:55:17.767Z,98559.91
2023-03-02T03:57:46.704Z,98565.94
2023-03-02T04:00:19.321Z,98552.16
2023-03-02T04:02:51.694Z,98558.13
2023-03-02T04:05:20.065Z,98555.16
2023-03-02T04:07:50.795Z,98551.06
2023-03-02T04:10:18.402Z,98557.22
2023-03-02T04:12:46.657Z,98560.81
2023-03-02T04:15:16.241Z,98552.97
2023-03-02T04:17:48.049Z,98543.97
2023-03-02T04:20:18.948Z,98549.13
2023-03-02T04:22:57.896Z,98549.34
2023-03-02T04:25:28.585Z,98537.25
2023-03-02T04:28:03.552Z,98539.59
2023-03-02T04:30:35.891Z,98550.41
2023-03-02T04:33:07.985Z,98537.69
2023-03-02T04:35:35.912Z,98542.25
2023-03-02T04:38:04.458Z,98548.56
2023-03-02T04:40:31.329Z,98551.97
2023-03-02T04:42:58.199Z,98539.94
2023-03-02T04:45:24.968Z,98544.56
2023-03-02T04:47:51.990Z,98553.25
2023-03-02T04:50:19.184Z,98549.53
2023-03-02T04:52:45.987Z,98555.16
2023-03-02T04:55:19.896Z,98556.41
2023-03-02T04:57:49.642Z,98551.19
2023-03-02T05:00:18.441Z,98552.22
2023-03-02T05:02:45.751Z,98552.72
2023-03-02T05:05:25.071Z,98557.84
2023-03-02T05:07:53.115Z,98565.75
2023-03-02T05:10:23.647Z,98563.50
2023-03-02T05:13:18.072Z,98550.69
2023-03-02T05:15:45.258Z,98552.63
2023-03-02T05:18:13.202Z,98554.34
2023-03-02T05:20:40.414Z,98550.28
2023-03-02T05:23:09.310Z,98547.41
2023-03-02T05:25:38.328Z,98546.31
2023-03-02T05:28:06.195Z,98552.94
2023-03-02T05:30:37.593Z,98555.25
2023-03-02T05:33:05.036Z,98541.69
2023-03-02T05:35:32.023Z,98558.84
2023-03-02T05:38:04.525Z,98557.19
2023-03-02T05:40:31.897Z,98557.03
2023-03-02T05:42:59.022Z,98558.97
2023-03-02T05:45:32.999Z,98562.91
2023-03-02T05:48:00.810Z,98558.72
2023-03-02T05:50:28.020Z,98560.97
2023-03-02T05:52:56.215Z,98568.88
2023-03-02T05:55:23.746Z,98560.47
2023-03-02T05:57:51.334Z,98562.25
2023-03-02T06:00:21.943Z,98567.16
2023-03-02T06:02:49.360Z,98564.56
2023-03-02T06:05:18.943Z,98563.69
2023-03-02T06:07:51.545Z,98560.06
2023-03-02T06:10:18.982Z,98568.09
2023-03-02T06:12:46.483Z,98570.81
2023-03-02T06:15:13.507Z,98563.78
2023-03-02T06:17:40.333Z,98579.56
2023-03-02T06:20:10.979Z,98569.03
2023-03-02T06:22:45.333Z,98575.16
2023-03-02T06:25:20.901Z,98575.13
2023-03-02T06:27:51.692Z,98575.00
2023-03-02T06:30:22.214Z,98576.25
2023-03-02T06:32:49.916Z,98571.94
2023-03-02T06:35:19.981Z,98577.56
2023-03-02T06:37:50.302Z,98564.56
2023-03-02T06:40:17.670Z,98568.41
2023-03-02T06:42:44.761Z,98574.50
2023-03-02T06:45:11.758Z,98569.63
2023-03-02T06:47:40.408Z,98567.03
2023-03-02T06:50:08.336Z,98562.69
2023-03-02T06:52:35.599Z,98568.66
2023-03-02T06:55:06.529Z,98570.31
2023-03-02T06:57:36.288Z,98568.44
2023-03-02T07:00:17.619Z,98571.84
2023-03-02T07:02:55.700Z,98578.50
2023-03-02T07:05:26.188Z,98569.84
2023-03-02T07:07:53.179Z,98575.03
2023-03-02T07:10:20.000Z,98569.94
2023-03-02T07:12:47.314Z,98564.69
2023-03-02T07:15:14.660Z,98563.34
2023-03-02T07:17:44.831Z,98565.81
2023-03-02T07:20:13.756Z,98550.16
2023-03-02T07:22:41.846Z,98557.50
2023-03-02T07:25:10.651Z,98558.16
2023-03-02T07:27:38.107Z,98555.81
2023-03-02T07:30:06.781Z,98552.38
2023-03-02T07:32:33.457Z,98562.47
2023-03-02T07:35:00.378Z,98560.53
2023-03-02T07:37:27.491Z,98559.00
2023-03-02T07:39:54.456Z,98562.84
2023-03-02T07:42:21.313Z,98548.97
2023-03-02T07:44:56.231Z,98566.47
2023-03-02T07:47:23.522Z,98556.81
2023-03-02T07:49:51.074Z,98552.56
2023-03-02T07:52:17.727Z,98557.00
2023-03-02T07:54:44.419Z,98543.94
2023-03-02T07:57:16.303Z,98549.94
2023-03-02T07:59:43.513Z,98550.88
2023-03-02T08:02:17.043Z,98552.34
2023-03-02T08:04:44.070Z,98552.41
2023-03-02T08:07:10.802Z,98551.91
2023-03-02T08:09:39.936Z,98546.44
2023-03-02T08:12:07.042Z,98551.38
2023-03-02T08:14:33.956Z,98549.06
2023-03-02T08:17:00.711Z,98541.06
2023-03-02T08:19:27.935Z,98546.59
2023-03-02T08:21:54.862Z,98552.72
2023-03-02T08:24:21.730Z,98550.47
2023-03-02T08:26:48.494Z,98544.16
2023-03-02T08:29:16.434Z,98556.41
2023-03-02T08:31:43.663Z,98554.06
2023-03-02T08:34:11.646Z,98542.38
2023-03-02T08:36:39.418Z,98547.94
2023-03-02T08:39:08.612Z,98536.78
2023-03-02T08:41:36.172Z,98539.16
2023-03-02T08:44:03.507Z,98545.25
2023-03-02T08:46:31.514Z,98538.72
2023-03-02T08:48:58.800Z,98539.63
2023-03-02T08:51:26.918Z,98542.03
2023-03-02T08:53:56.324Z,98520.91
2023-03-02T08:56:31.979Z,98532.84
2023-03-02T08:59:02.245Z,98533.53
2023-03-02T09:01:32.246Z,98525.78
2023-03-02T09:04:01.974Z,98532.38
2023-03-02T09:06:30.076Z,98523.53
2023-03-02T09:08:57.823Z,98523.50
2023-03-02T09:11:25.417Z,98523.53
2023-03-02T09:13:53.258Z,98530.13
2023-03-02T09:16:20.600Z,98523.84
2023-03-02T09:18:48.338Z,98531.69
2023-03-02T09:21:16.081Z,98518.47
2023-03-02T09:23:43.401Z,98526.16
2023-03-02T09:26:12.459Z,98532.31
2023-03-02T09:28:39.979Z,98522.38
2023-03-02T09:31:08.901Z,98523.59
2023-03-02T09:33:36.088Z,98527.00
2023-03-02T09:36:08.096Z,98531.75
2023-03-02T09:38:34.994Z,98517.06
2023-03-02T09:41:13.457Z,98517.53
2023-03-02T09:44:01.834Z,98516.56
2023-03-02T09:46:34.622Z,98510.47
2023-03-02T09:49:31.795Z,98511.97
2023-03-02T09:52:30.553Z,98520.44
2023-03-02T09:55:08.764Z,98514.16
2023-03-02T09:57:39.949Z,98513.16
2023-03-02T10:00:18.579Z,98515.31
2023-03-02T10:03:11.341Z,98511.72
2023-03-02T10:05:45.696Z,98509.44
2023-03-02T10:08:20.831Z,98508.03
2023-03-02T10:11:13.137Z,98512.47
2023-03-02T10:13:47.693Z,98506.34
2023-03-02T10:16:42.178Z,98506.97
2023-03-02T10:19:25.438Z,98510.84
2023-03-02T10:22:03.387Z,98506.38
2023-03-02T10:24:40.854Z,98503.72
2023-03-02T10:27:31.364Z,98500.56
2023-03-02T10:30:16.283Z,98501.66
2023-03-02T10:32:48.119Z,98500.31
2023-03-02T10:35:21.012Z,98490.88
2023-03-02T10:37:50.685Z,98491.53
2023-03-02T10:40:43.660Z,98491.97
2023-03-02T10:43:17.377Z,98482.59
2023-03-02T10:45:44.934Z,98490.97
2023-03-02T10:48:14.472Z,98493.03
2023-03-02T10:50:44.458Z,98491.53
2023-03-02T10:53:17.880Z,98488.50
2023-03-02T10:55:47.719Z,98485.59
2023-03-02T10:58:32.301Z,98485.75
2023-03-02T11:01:15.298Z,98482.19
2023-03-02T11:03:42.845Z,98475.81
2023-03-02T11:06:21.118Z,98471.81
2023-03-02T11:08:58.688Z,98477.72
2023-03-02T11:11:26.083Z,98474.59
2023-03-02T11:13:53.201Z,98471.63
2023-03-02T11:16:20.195Z,98462.16
2023-03-02T11:19:02.927Z,98470.69
2023-03-02T11:21:36.189Z,98466.31
2023-03-02T11:24:12.607Z,98463.25
2023-03-02T11:26:53.747Z,98465.84
2023-03-02T11:29:30.278Z,98456.31
2023-03-02T11:32:12.916Z,98466.66
2023-03-02T11:34:48.795Z,98457.47
2023-03-02T11:37:22.435Z,98444.66
2023-03-02T11:39:55.407Z,98447.22
2023-03-02T11:42:33.644Z,98453.69
2023-03-02T11:45:23.251Z,98446.63
2023-03-02T11:48:24.320Z,98437.69
2023-03-02T11:51:05.416Z,98444.94
2023-03-02T11:54:00.526Z,98435.19
2023-03-02T11:56:34.278Z,98430.66
2023-03-02T11:59:07.178Z,98420.59
2023-03-02T12:01:36.786Z,98426.53
2023-03-02T12:04:10.670Z,98414.44
2023-03-02T12:06:40.800Z,98417.88
2023-03-02T12:09:31.384Z,98412.97
2023-03-02T12:12:14.742Z,98417.53
2023-03-02T12:14:43.546Z,98411.13
2023-03-02T12:17:19.513Z,98404.69
2023-03-02T12:19:48.032Z,98410.16
2023-03-02T12:22:28.016Z,98402.38
2023-03-02T12:25:21.238Z,98393.97
2023-03-02T12:27:51.628Z,98395.00
2023-03-02T12:30:23.623Z,98396.75
2023-03-02T12:33:05.636Z,98395.38
2023-03-02T12:35:34.833Z,98386.00
2023-03-02T12:38:07.293Z,98389.00
2023-03-02T12:41:07.850Z,98381.91
2023-03-02T12:43:45.236Z,98376.00
2023-03-02T12:46:27.167Z,98378.47
2023-03-02T12:49:04.166Z,98372.94
2023-03-02T12:51:55.731Z,98369.28
2023-03-02T12:54:28.788Z,98363.47
2023-03-02T12:57:08.165Z,98360.34
2023-03-02T12:59:37.553Z,98361.63
2023-03-02T13:02:19.677Z,98352.78
2023-03-02T13:05:09.053Z,98355.31
2023-03-02T13:07:47.814Z,98358.38
2023-03-02T13:10:42.276Z,98353.16
2023-03-02T13:13:18.596Z,98345.81
2023-03-02T13:15:54.777Z,98341.47
2023-03-02T13:18:23.729Z,98342.59
2023-03-02T13:20:53.327Z,98343.00
2023-03-02T13:23:20.691Z,98332.28
2023-03-02T13:25:57.479Z,98326.25
2023-03-02T13:28:39.841Z,98325.50
2023-03-02T13:31:23.965Z,98328.31
2023-03-02T13:33:54.028Z,98326.88
2023-03-02T13:36:28.253Z,98315.84
2023-03-02T13:39:03.904Z,98301.88
2023-03-02T13:41:36.660Z,98313.13
2023-03-02T13:44:23.269Z,98301.25
2023-03-02T13:46:51.008Z,98314.13
2023-03-02T13:49:33.140Z,98307.16
2023-03-02T13:52:14.767Z,98299.06
2023-03-02T13:54:43.862Z,98303.31
2023-03-02T13:57:20.299Z,98297.53
2023-03-02T13:59:47.603Z,98292.47
2023-03-02T14:02:27.585Z,98292.25
2023-03-02T14:04:55.412Z,98289.50
2023-03-02T14:07:23.283Z,98293.97
2023-03-02T14:09:50.310Z,98281.31
2023-03-02T14:12:25.540Z,98285.84
2023-03-02T14:14:56.243Z,98286.06
2023-03-02T14:17:25.313Z,98281.41
2023-03-02T14:19:53.317Z,98275.88
2023-03-02T14:22:22.206Z,98273.09
2023-03-02T14:24:50.341Z,98273.69
2023-03-02T14:27:19.352Z,98275.91
2023-03-02T14:29:47.736Z,98268.25
2023-03-02T14:32:15.856Z,98266.78
2023-03-02T14:34:43.201Z,98265.13
2023-03-02T14:37:15.841Z,98258.44
2023-03-02T14:39:52.060Z,98261.06
2023-03-02T14:42:22.705Z,98255.41
2023-03-02T14:44:51.615Z,98267.03
2023-03-02T14:47:20.265Z,98259.47
2023-03-02T14:49:49.437Z,98256.94
2023-03-02T14:52:28.462Z,98258.16
2023-03-02T14:55:04.150Z,98260.22
2023-03-02T14:57:37.071Z,98258.19
2023-03-02T15:00:05.453Z,98253.81
2023-03-02T15:02:33.458Z,98248.69
2023-03-02T15:05:00.745Z,98249.63
2023-03-02T15:07:29.318Z,98241.91
2023-03-02T15:10:05.944Z,98244.03
2023-03-02T15:12:34.153Z,98239.63
2023-03-02T15:15:01.371Z,98237.38
2023-03-02T15:17:30.957Z,98243.44
2023-03-02T15:19:57.735Z,98239.53
2023-03-02T15:22:25.532Z,98240.97
2023-03-02T15:24:53.347Z,98248.78
2023-03-02T15:27:23.998Z,98239.84
2023-03-02T15:29:51.745Z,98254.13
2023-03-02T15:32:19.985Z,98247.72
2023-03-02T15:34:54.172Z,98251.28
2023-03-02T15:37:22.346Z,98247.47
2023-03-02T15:40:02.726Z,98235.84
2023-03-02T15:42:29.582Z,98236.84
2023-03-02T15:44:59.784Z,98241.59
2023-03-02T15:47:30.074Z,98245.94
2023-03-02T15:49:57.885Z,98245.31
2023-03-02T15:52:26.685Z,98242.97
2023-03-02T15:54:57.809Z,98240.03
2023-03-02T15:57:25.627Z,98235.56
2023-03-02T15:59:52.651Z,98234.47
2023-03-02T16:02:22.008Z,98225.31
2023-03-02T16:04:49.053Z,98229.50
2023-03-02T16:07:16.203Z,98230.28
2023-03-02T16:09:45.320Z,98227.66
2023-03-02T16:12:14.458Z,98226.81
2023-03-02T16:14:41.356Z,98224.47
2023-03-02T16:17:08.429Z,98229.97
2023-03-02T16:19:38.273Z,98228.66
2023-03-02T16:22:05.031Z,98220.25
2023-03-02T16:24:32.060Z,98229.41
2023-03-02T16:26:59.527Z,98223.28
2023-03-02T16:29:26.851Z,98230.19
2023-03-02T16:31:53.785Z,98232.00
2023-03-02T16:34:21.054Z,98237.78
2023-03-02T16:36:47.936Z,98231.19
2023-03-02T16:39:15.546Z,98234.84
2023-03-02T16:41:44.351Z,98233.44
2023-03-02T16:44:13.428Z,98241.28
2023-03-02T16:46:43.942Z,98243.53
2023-03-02T16:49:14.893Z,98240.31
2023-03-02T16:51:46.948Z,98238.22
2023-03-02T16:54:16.580Z,98245.75
2023-03-02T16:56:47.823Z,98240.41
2023-03-02T16:59:15.139Z,98246.69
2023-03-02T17:01:42.494Z,98247.06
2023-03-02T17:04:10.058Z,98249.63
2023-03-02T17:06:38.067Z,98252.19
2023-03-02T17:09:05.990Z,98252.53
2023-03-02T17:11:32.931Z,98249.63
2023-03-02T17:13:59.927Z,98254.50
2023-03-02T17:16:26.680Z,98253.25
2023-03-02T17:18:53.515Z,98246.06
2023-03-02T17:21:21.297Z,98247.59
2023-03-02T17:23:48.675Z,98247.31
2023-03-02T17:26:17.261Z,98251.78
2023-03-02T17:28:44.100Z,98258.81
2023-03-02T17:31:11.215Z,98251.47
2023-03-02T17:33:39.099Z,98255.13
2023-03-02T17:36:09.364Z,98255.50
2023-03-02T17:38:36.677Z,98258.31
2023-03-02T17:41:05.585Z,98255.97
2023-03-02T17:43:36.169Z,98258.97
2023-03-02T17:46:22.882Z,98253.75
2023-03-02T17:48:54.141Z,98257.59
2023-03-02T17:51:22.465Z,98255.03
2023-03-02T17:53:51.942Z,98253.50
2023-03-02T17:56:22.403Z,98251.19
2023-03-02T17:58:54.860Z,98257.31
2023-03-02T18:01:22.138Z,98256.22
2023-03-02T18:03:49.358Z,98256.31
2023-03-02T18:06:18.479Z,98251.91
2023-03-02T18:08:45.492Z,98260.88
2023-03-02T18:11:13.112Z,98257.56
2023-03-02T18:13:40.393Z,98256.25
2023-03-02T18:16:10.525Z,98263.88
2023-03-02T18:18:38.358Z,98262.09
2023-03-02T18:21:06.348Z,98262.38
2023-03-02T18:23:34.005Z,98255.09
2023-03-02T18:26:02.093Z,98262.78
2023-03-02T18:28:29.843Z,98254.56
2023-03-02T18:30:56.911Z,98251.53
2023-03-02T18:33:24.817Z,98255.97
2023-03-02T18:35:51.971Z,98255.16
2023-03-02T18:38:19.669Z,98254.34
2023-03-02T18:40:48.086Z,98263.25
2023-03-02T18:43:14.838Z,98265.16
2023-03-02T18:45:42.432Z,98260.31
2023-03-02T18:48:09.220Z,98257.03
2023-03-02T18:50:35.906Z,98271.38
2023-03-02T18:53:02.633Z,98270.22
2023-03-02T18:55:29.354Z,98274.66
2023-03-02T18:57:56.270Z,98268.47
2023-03-02T19:00:27.809Z,98271.59
2023-03-02T19:02:55.796Z,98268.09
2023-03-02T19:05:22.889Z,98270.75
2023-03-02T19:07:50.343Z,98269.25
2023-03-02T19:10:19.068Z,98270.59
2023-03-02T19:12:46.860Z,98276.53
2023-03-02T19:15:13.628Z,98280.84
2023-03-02T19:17:42.915Z,98273.94
2023-03-02T19:20:15.351Z,98280.28
2023-03-02T19:22:42.446Z,98283.78
2023-03-02T19:25:10.218Z,98287.91
2023-03-02T19:27:37.160Z,98288.09
2023-03-02T19:30:06.529Z,98281.03
2023-03-02T19:32:33.620Z,98281.31
2023-03-02T19:35:02.597Z,98276.59
2023-03-02T19:37:29.583Z,98279.31
2023-03-02T19:39:56.552Z,98272.16
2023-03-02T19:42:23.501Z,98285.06
2023-03-02T19:44:50.156Z,98281.59
2023-03-02T19:47:18.838Z,98279.88
2023-03-02T19:49:46.140Z,98284.09
2023-03-02T19:52:13.122Z,98285.41
2023-03-02T19:54:40.529Z,98288.72
2023-03-02T19:57:08.140Z,98299.47
2023-03-02T19:59:36.681Z,98292.13
2023-03-02T20:02:03.568Z,98308.22
2023-03-02T20:04:30.258Z,98307.47
2023-03-02T20:06:57.238Z,98305.03
2023-03-02T20:09:27.188Z,98306.91
2023-03-02T20:11:54.668Z,98313.97
2023-03-02T20:14:33.533Z,98310.75
2023-03-02T20:17:02.662Z,98307.09
2023-03-02T20:19:29.507Z,98302.78
2023-03-02T20:21:56.546Z,98318.66
2023-03-02T20:24:24.147Z,98315.06
2023-03-02T20:26:51.261Z,98312.13
2023-03-02T20:29:18.701Z,98319.38
2023-03-02T20:31:46.158Z,98311.00
2023-03-02T20:34:16.701Z,98317.25
2023-03-02T20:36:45.156Z,98317.94
2023-03-02T20:39:12.086Z,98312.16
2023-03-02T20:41:39.131Z,98317.59
2023-03-02T20:44:07.662Z,98327.50
2023-03-02T20:46:39.041Z,98320.91
2023-03-02T20:49:09.892Z,98329.22
2023-03-02T20:51:39.522Z,98322.16
2023-03-02T20:54:07.564Z,98322.34
2023-03-02T20:56:34.732Z,98316.63
2023-03-02T20:59:01.698Z,98315.53
2023-03-02T21:01:29.845Z,98315.53
2023-03-02T21:03:57.112Z,98308.06
2023-03-02T21:06:24.737Z,98311.25
2023-03-02T21:08:52.624Z,98315.09
2023-03-02T21:11:21.426Z,98315.34
2023-03-02T21:13:49.185Z,98324.44
2023-03-02T21:16:22.145Z,98321.06
2023-03-02T21:18:49.111Z,98314.72
2023-03-02T21:21:16.653Z,98317.09
2023-03-02T21:23:45.101Z,98307.34
2023-03-02T21:26:13.860Z,98314.53
2023-03-02T21:28:45.592Z,98316.03
2023-03-02T21:31:15.682Z,98315.19
2023-03-02T21:33:42.975Z,98316.72
2023-03-02T21:36:22.151Z,98307.06
2023-03-02T21:38:51.070Z,98313.25
2023-03-02T21:41:19.322Z,98303.25
2023-03-02T21:43:47.749Z,98311.22
2023-03-02T21:46:18.573Z,98313.91
2023-03-02T21:48:48.672Z,98310.28
2023-03-02T21:51:16.534Z,98310.88
2023-03-02T21:53:43.390Z,98299.94
2023-03-02T21:56:14.744Z,98306.28
2023-03-02T21:58:42.005Z,98305.28
2023-03-02T22:01:09.216Z,98311.59
2023-03-02T22:03:37.571Z,98300.06
2023-03-02T22:06:04.642Z,98309.88
2023-03-02T22:08:35.313Z,98316.38
2023-03-02T22:11:03.934Z,98318.50
2023-03-02T22:13:32.709Z,98310.03
2023-03-02T22:16:15.942Z,98312.81
2023-03-02T22:18:44.525Z,98317.28
2023-03-02T22:21:34.767Z,98316.97
2023-03-02T22:24:12.342Z,98318.75
2023-03-02T22:26:45.948Z,98318.94
2023-03-02T22:29:23.066Z,98321.16
2023-03-02T22:31:51.872Z,98323.66
2023-03-02T22:34:23.921Z,98320.53
2023-03-02T22:36:50.938Z,98318.16
2023-03-02T22:39:23.389Z,98316.00
2023-03-02T22:41:53.304Z,98307.38
2023-03-02T22:44:22.423Z,98310.19
2023-03-02T22:46:51.191Z,98316.53
2023-03-02T22:49:18.267Z,98318.94
2023-03-02T22:51:45.288Z,98316.91
2023-03-02T22:54:20.472Z,98318.69
2023-03-02T22:56:51.376Z,98319.47
2023-03-02T22:59:27.093Z,98311.88
2023-03-02T23:02:02.797Z,98312.53
2023-03-02T23:04:38.177Z,98308.28
2023-03-02T23:07:16.108Z,98311.69
2023-03-02T23:09:43.380Z,98316.00
2023-03-02T23:12:26.387Z,98312.84
2023-03-02T23:14:57.929Z,98304.19
2023-03-02T23:17:39.515Z,98309.81
2023-03-02T23:20:09.731Z,98309.69
2023-03-02T23:22:39.229Z,98304.69
2023-03-02T23:25:08.835Z,98303.50
2023-03-02T23:27:35.932Z,98294.41
2023-03-02T23:30:03.332Z,98293.09
2023-03-02T23:32:30.391Z,98297.00
2023-03-02T23:34:57.180Z,98301.66
2023-03-02T23:37:24.204Z,98295.47
2023-03-02T23:39:51.191Z,98298.38
2023-03-02T23:42:18.116Z,98304.38
2023-03-02T23:44:45.478Z,98293.78
2023-03-02T23:47:12.908Z,98297.16
2023-03-02T23:49:40.024Z,98291.16
2023-03-02T23:52:06.836Z,98293.84
2023-03-02T23:54:33.864Z,98298.50
2023-03-02T23:57:00.773Z,98292.88
2023-03-02T23:59:27.567Z,98292.06
